createdAt,value
2019-02-17T00:01:53.366Z,13.56
2019-02-17T00:04:30.785Z,13.60
2019-02-17T00:07:16.015Z,13.42
2019-02-17T00:09:53.393Z,13.30
2019-02-17T00:12:32.243Z,13.22
2019-02-17T00:17:50.637Z,13.02
2019-02-17T00:20:38.753Z,12.98
2019-02-17T00:23:18.269Z,12.94
2019-02-17T00:26:10.803Z,12.77
2019-02-17T00:28:59.422Z,12.61
2019-02-17T00:31:34.803Z,12.64
2019-02-17T00:34:07.195Z,12.59
2019-02-17T00:36:40.329Z,12.56
2019-02-17T00:39:12.188Z,12.51
2019-02-17T00:41:46.984Z,12.50
2019-02-17T00:44:13.961Z,12.52
2019-02-17T00:46:42.028Z,12.55
2019-02-17T00:49:08.957Z,12.52
2019-02-17T00:51:35.874Z,12.54
2019-02-17T00:54:02.856Z,12.51
2019-02-17T00:56:30.134Z,12.52
2019-02-17T00:58:57.086Z,12.55
2019-02-17T01:01:24.350Z,12.61
2019-02-17T01:03:51.691Z,12.66
2019-02-17T01:06:19.735Z,12.71
2019-02-17T01:08:46.716Z,12.71
2019-02-17T01:11:13.960Z,12.73
2019-02-17T01:13:41.317Z,12.73
2019-02-17T01:16:08.573Z,12.73
2019-02-17T01:18:35.533Z,12.71
2019-02-17T01:21:02.769Z,12.75
2019-02-17T01:23:30.055Z,12.79
2019-02-17T01:25:57.293Z,12.80
2019-02-17T01:28:24.272Z,12.80
2019-02-17T01:30:51.154Z,12.88
2019-02-17T01:33:18.073Z,12.93
2019-02-17T01:35:45.071Z,12.89
2019-02-17T01:38:12.035Z,12.87
2019-02-17T01:40:38.982Z,12.85
2019-02-17T01:43:06.207Z,12.82
2019-02-17T01:45:33.441Z,12.79
2019-02-17T01:48:00.337Z,12.79
2019-02-17T01:50:27.272Z,12.79
2019-02-17T01:52:54.505Z,12.76
2019-02-17T01:55:21.398Z,12.76
2019-02-17T01:57:48.341Z,12.75
2019-02-17T02:00:15.253Z,12.76
2019-02-17T02:02:42.577Z,12.69
2019-02-17T02:05:09.490Z,12.66
2019-02-17T02:07:36.470Z,12.60
2019-02-17T02:10:03.453Z,12.46
2019-02-17T02:12:30.489Z,12.33
2019-02-17T02:14:57.474Z,12.32
2019-02-17T02:17:24.464Z,12.38
2019-02-17T02:19:51.452Z,12.43
2019-02-17T02:22:18.412Z,12.41
2019-02-17T02:24:45.718Z,12.39
2019-02-17T02:27:12.685Z,12.40
2019-02-17T02:29:41.539Z,12.43
2019-02-17T02:32:08.906Z,12.36
2019-02-17T02:34:35.926Z,12.35
2019-02-17T02:37:02.891Z,12.35
2019-02-17T02:39:29.819Z,12.33
2019-02-17T02:41:56.770Z,12.31
2019-02-17T02:44:23.709Z,12.31
2019-02-17T02:46:50.612Z,12.28
2019-02-17T02:49:17.961Z,12.29
2019-02-17T02:51:44.913Z,12.27
2019-02-17T02:54:12.120Z,12.26
2019-02-17T02:56:39.101Z,12.26
2019-02-17T02:59:06.461Z,12.28
2019-02-17T03:01:33.462Z,12.28
2019-02-17T03:04:00.398Z,12.19
2019-02-17T03:06:27.706Z,12.09
2019-02-17T03:08:54.642Z,12.08
2019-02-17T03:11:21.887Z,12.05
2019-02-17T03:13:48.832Z,12.11
2019-02-17T03:16:15.782Z,12.11
2019-02-17T03:18:43.035Z,12.07
2019-02-17T03:21:09.935Z,12.08
2019-02-17T03:23:36.876Z,12.11
2019-02-17T03:26:06.938Z,12.18
2019-02-17T03:28:34.184Z,12.24
2019-02-17T03:31:01.455Z,12.25
2019-02-17T03:33:28.431Z,12.27
2019-02-17T03:35:57.291Z,12.21
2019-02-17T03:38:25.209Z,12.20
2019-02-17T03:40:52.514Z,12.18
2019-02-17T03:43:19.777Z,12.14
2019-02-17T03:45:47.038Z,12.11
2019-02-17T03:48:14.249Z,12.03
2019-02-17T03:50:41.670Z,12.02
2019-02-17T03:53:08.633Z,12.01
2019-02-17T03:55:35.566Z,11.97
2019-02-17T03:58:02.856Z,11.92
2019-02-17T04:00:30.108Z,11.88
2019-02-17T04:02:57.114Z,11.85
2019-02-17T04:05:24.319Z,11.81
2019-02-17T04:07:51.284Z,11.80
2019-02-17T04:10:18.238Z,11.77
2019-02-17T04:12:46.471Z,11.74
2019-02-17T04:15:13.379Z,11.69
2019-02-17T04:17:40.359Z,11.66
2019-02-17T04:20:07.305Z,11.64
2019-02-17T04:22:34.600Z,11.62
2019-02-17T04:25:01.544Z,11.62
2019-02-17T04:27:28.439Z,11.55
2019-02-17T04:29:55.718Z,11.45
2019-02-17T04:32:23.061Z,11.46
2019-02-17T04:34:50.054Z,11.43
2019-02-17T04:37:17.250Z,11.38
2019-02-17T04:39:45.220Z,11.33
2019-02-17T04:42:12.212Z,11.20
2019-02-17T04:44:39.176Z,11.22
2019-02-17T04:47:06.475Z,11.21
2019-02-17T04:49:33.375Z,11.29
2019-02-17T04:52:00.314Z,11.30
2019-02-17T04:54:27.207Z,11.29
2019-02-17T04:56:54.181Z,11.20
2019-02-17T04:59:21.190Z,11.07
2019-02-17T05:01:48.486Z,11.09
2019-02-17T05:04:15.439Z,11.20
2019-02-17T05:06:43.483Z,11.17
2019-02-17T05:09:10.417Z,11.10
2019-02-17T05:11:37.689Z,11.13
2019-02-17T05:14:04.952Z,11.17
2019-02-17T05:16:31.831Z,11.16
2019-02-17T05:18:58.713Z,11.16
2019-02-17T05:21:25.591Z,11.11
2019-02-17T05:23:52.510Z,11.10
2019-02-17T05:26:19.789Z,11.09
2019-02-17T05:28:46.750Z,11.09
2019-02-17T05:31:13.647Z,11.10
2019-02-17T05:33:40.902Z,11.16
2019-02-17T05:36:07.873Z,11.21
2019-02-17T05:38:34.849Z,11.23
2019-02-17T05:41:02.149Z,11.22
2019-02-17T05:43:29.115Z,11.26
2019-02-17T05:45:56.121Z,11.22
2019-02-17T05:48:23.425Z,11.18
2019-02-17T05:50:50.414Z,11.20
2019-02-17T05:53:17.441Z,11.35
2019-02-17T05:55:44.368Z,11.49
2019-02-17T05:58:11.696Z,11.54
2019-02-17T06:00:40.514Z,11.51
2019-02-17T06:03:07.863Z,11.50
2019-02-17T06:05:34.822Z,11.49
2019-02-17T06:08:01.783Z,11.48
2019-02-17T06:10:28.724Z,11.53
2019-02-17T06:12:55.671Z,11.60
2019-02-17T06:15:22.978Z,11.58
2019-02-17T06:17:50.349Z,11.58
2019-02-17T06:20:17.278Z,11.52
2019-02-17T06:22:44.527Z,11.50
2019-02-17T06:25:11.782Z,11.52
2019-02-17T06:27:39.078Z,11.49
2019-02-17T06:30:06.086Z,11.53
2019-02-17T06:32:33.347Z,11.60
2019-02-17T06:35:00.370Z,11.66
2019-02-17T06:37:29.236Z,11.66
2019-02-17T06:39:58.070Z,11.69
2019-02-17T06:42:25.314Z,11.71
2019-02-17T06:44:52.240Z,11.74
2019-02-17T06:47:19.283Z,11.77
2019-02-17T06:49:47.197Z,11.80
2019-02-17T06:52:14.158Z,11.83
2019-02-17T06:54:41.385Z,11.84
2019-02-17T06:57:08.764Z,11.94
2019-02-17T06:59:35.795Z,12.12
2019-02-17T07:02:03.048Z,12.32
2019-02-17T07:04:30.301Z,12.49
2019-02-17T07:06:57.255Z,12.61
2019-02-17T07:09:24.574Z,12.70
2019-02-17T07:11:51.627Z,12.81
2019-02-17T07:14:18.903Z,12.92
2019-02-17T07:16:46.187Z,13.04
2019-02-17T07:19:13.349Z,13.19
2019-02-17T07:21:40.405Z,13.37
2019-02-17T07:24:07.918Z,13.45
2019-02-17T07:26:34.915Z,13.53
2019-02-17T07:29:03.589Z,13.54
2019-02-17T07:31:35.031Z,13.57
2019-02-17T07:33:59.069Z,13.72
2019-02-17T07:36:26.442Z,13.81
2019-02-17T07:38:53.382Z,13.87
2019-02-17T07:41:20.375Z,13.91
2019-02-17T07:43:47.343Z,14.03
2019-02-17T07:46:14.611Z,14.10
2019-02-17T07:48:41.881Z,14.17
2019-02-17T07:51:08.827Z,14.30
2019-02-17T07:53:36.279Z,14.40
2019-02-17T07:56:03.262Z,14.51
2019-02-17T07:58:30.513Z,14.54
2019-02-17T08:00:57.501Z,14.54
2019-02-17T08:03:24.746Z,14.56
2019-02-17T08:05:51.702Z,14.60
2019-02-17T08:08:19.629Z,14.64
2019-02-17T08:10:46.508Z,14.67
2019-02-17T08:13:13.394Z,14.76
2019-02-17T08:15:40.265Z,14.84
2019-02-17T08:18:07.487Z,14.90
2019-02-17T08:20:37.569Z,14.94
2019-02-17T08:23:07.421Z,14.97
2019-02-17T08:25:34.318Z,15.06
2019-02-17T08:28:01.483Z,15.12
2019-02-17T08:30:28.452Z,15.18
2019-02-17T08:32:55.700Z,15.19
2019-02-17T08:35:22.718Z,15.22
2019-02-17T08:37:49.703Z,15.26
2019-02-17T08:40:16.752Z,15.33
2019-02-17T08:42:43.978Z,15.41
2019-02-17T08:45:10.982Z,15.44
2019-02-17T08:47:38.014Z,15.47
2019-02-17T08:50:05.429Z,15.51
2019-02-17T08:52:32.321Z,15.58
2019-02-17T08:54:59.626Z,15.60
2019-02-17T08:57:26.874Z,15.66
2019-02-17T08:59:53.790Z,15.66
2019-02-17T09:02:21.230Z,15.67
2019-02-17T09:04:48.154Z,15.71
2019-02-17T09:07:15.120Z,15.74
2019-02-17T09:09:42.002Z,15.74
2019-02-17T09:12:09.318Z,15.76
2019-02-17T09:14:36.676Z,15.79
2019-02-17T09:17:04.003Z,15.87
2019-02-17T09:19:31.921Z,15.96
2019-02-17T09:21:59.185Z,16.04
2019-02-17T09:24:33.519Z,16.14
2019-02-17T09:27:00.477Z,16.23
2019-02-17T09:29:27.429Z,16.34
2019-02-17T09:31:54.377Z,16.41
2019-02-17T09:34:21.533Z,16.42
2019-02-17T09:36:48.484Z,16.41
2019-02-17T09:39:15.375Z,16.43
2019-02-17T09:41:42.328Z,16.52
2019-02-17T09:44:09.289Z,16.58
2019-02-17T09:46:36.246Z,16.61
2019-02-17T09:49:03.309Z,16.70
2019-02-17T09:51:30.354Z,16.70
2019-02-17T09:53:57.577Z,16.73
2019-02-17T09:56:24.853Z,16.69
2019-02-17T09:58:51.810Z,16.69
2019-02-17T10:01:19.035Z,16.74
2019-02-17T10:03:45.920Z,16.70
2019-02-17T10:06:12.914Z,16.71
2019-02-17T10:08:40.146Z,16.72
2019-02-17T10:11:07.028Z,16.76
2019-02-17T10:13:34.057Z,16.80
2019-02-17T10:16:00.949Z,16.81
2019-02-17T10:18:27.937Z,16.82
2019-02-17T10:20:54.917Z,16.84
2019-02-17T10:23:21.887Z,16.90
2019-02-17T10:25:49.412Z,16.94
2019-02-17T10:28:16.574Z,16.96
2019-02-17T10:30:43.465Z,16.98
2019-02-17T10:33:10.501Z,17.02
2019-02-17T10:35:37.535Z,17.13
2019-02-17T10:38:04.484Z,17.13
2019-02-17T10:40:32.114Z,17.19
2019-02-17T10:42:59.087Z,17.28
2019-02-17T10:45:26.076Z,17.36
2019-02-17T10:47:52.975Z,17.40
2019-02-17T10:50:20.175Z,17.43
2019-02-17T10:52:47.342Z,17.45
2019-02-17T10:55:14.534Z,17.48
2019-02-17T10:57:41.550Z,17.49
2019-02-17T11:00:08.506Z,17.54
2019-02-17T11:02:35.529Z,17.64
2019-02-17T11:05:02.853Z,17.65
2019-02-17T11:07:30.184Z,17.65
2019-02-17T11:09:57.150Z,17.66
2019-02-17T11:12:24.222Z,17.70
2019-02-17T11:14:51.528Z,17.76
2019-02-17T11:17:18.445Z,17.79
2019-02-17T11:19:45.395Z,17.82
2019-02-17T11:22:12.368Z,17.84
2019-02-17T11:24:39.329Z,17.85
2019-02-17T11:27:06.558Z,17.86
2019-02-17T11:29:33.492Z,17.88
2019-02-17T11:32:00.438Z,17.91
2019-02-17T11:34:27.321Z,17.95
2019-02-17T11:36:54.219Z,17.98
2019-02-17T11:39:21.497Z,18.03
2019-02-17T11:41:48.614Z,18.05
2019-02-17T11:44:15.495Z,18.09
2019-02-17T11:46:42.683Z,18.13
2019-02-17T11:49:10.629Z,18.18
2019-02-17T11:51:37.887Z,18.21
2019-02-17T11:54:05.216Z,18.22
2019-02-17T11:56:32.434Z,18.16
2019-02-17T11:58:59.384Z,18.19
2019-02-17T12:01:26.389Z,18.18
2019-02-17T12:03:53.622Z,18.18
2019-02-17T12:06:20.854Z,18.17
2019-02-17T12:08:48.106Z,18.21
2019-02-17T12:11:16.573Z,18.26
2019-02-17T12:13:43.596Z,18.30
2019-02-17T12:16:10.783Z,18.32
2019-02-17T12:18:38.036Z,18.34
2019-02-17T12:21:05.306Z,18.36
2019-02-17T12:23:34.041Z,18.41
2019-02-17T12:26:11.850Z,18.45
2019-02-17T12:28:54.335Z,18.54
2019-02-17T12:31:20.590Z,18.60
2019-02-17T12:33:51.435Z,18.68
2019-02-17T12:36:18.452Z,18.75
2019-02-17T12:38:45.882Z,18.78
2019-02-17T12:41:13.238Z,18.81
2019-02-17T12:43:40.473Z,18.86
2019-02-17T12:46:07.466Z,18.88
2019-02-17T12:48:36.525Z,18.91
2019-02-17T12:51:03.488Z,18.91
2019-02-17T12:53:30.748Z,18.95
2019-02-17T12:55:58.265Z,18.97
2019-02-17T12:58:29.919Z,18.98
2019-02-17T13:00:56.456Z,19.02
2019-02-17T13:03:28.506Z,19.05
2019-02-17T13:05:52.316Z,19.07
2019-02-17T13:08:19.544Z,19.11
2019-02-17T13:10:46.447Z,19.12
2019-02-17T13:13:13.767Z,19.13
2019-02-17T13:15:42.413Z,19.15
2019-02-17T13:18:09.656Z,19.17
2019-02-17T13:20:36.609Z,19.17
2019-02-17T13:23:03.749Z,19.18
2019-02-17T13:25:30.647Z,19.21
2019-02-17T13:27:57.888Z,19.23
2019-02-17T13:30:24.857Z,19.25
2019-02-17T13:32:51.918Z,19.22
2019-02-17T13:35:19.119Z,19.21
2019-02-17T13:37:45.997Z,19.22
2019-02-17T13:40:13.246Z,19.21
2019-02-17T13:42:40.141Z,19.26
2019-02-17T13:45:07.415Z,19.34
2019-02-17T13:47:34.589Z,19.40
2019-02-17T13:50:01.580Z,19.43
2019-02-17T13:52:28.866Z,19.46
2019-02-17T13:54:56.113Z,19.49
2019-02-17T13:57:23.031Z,19.52
2019-02-17T13:59:49.998Z,19.53
2019-02-17T14:02:17.265Z,19.54
2019-02-17T14:04:44.568Z,19.55
2019-02-17T14:07:11.927Z,19.54
2019-02-17T14:09:38.874Z,19.55
2019-02-17T14:12:06.404Z,19.57
2019-02-17T14:14:33.644Z,19.55
2019-02-17T14:17:00.525Z,19.58
2019-02-17T14:19:27.745Z,19.65
2019-02-17T14:21:54.723Z,19.67
2019-02-17T14:24:22.038Z,19.69
2019-02-17T14:26:49.033Z,19.72
2019-02-17T14:29:16.006Z,19.73
2019-02-17T14:31:43.301Z,19.77
2019-02-17T14:34:10.283Z,19.76
2019-02-17T14:36:37.606Z,19.78
2019-02-17T14:39:04.937Z,19.79
2019-02-17T14:41:33.946Z,19.81
2019-02-17T14:44:01.153Z,19.80
2019-02-17T14:46:28.448Z,19.80
2019-02-17T14:48:55.696Z,19.83
2019-02-17T14:51:22.618Z,19.82
2019-02-17T14:53:49.557Z,19.81
2019-02-17T14:56:16.453Z,19.77
2019-02-17T14:58:43.681Z,19.75
2019-02-17T15:01:10.945Z,19.78
2019-02-17T15:03:38.186Z,19.74
2019-02-17T15:06:05.094Z,19.73
2019-02-17T15:08:32.061Z,19.71
2019-02-17T15:10:59.347Z,19.69
2019-02-17T15:13:26.582Z,19.70
2019-02-17T15:15:53.496Z,19.74
2019-02-17T15:18:20.447Z,19.77
2019-02-17T15:20:47.617Z,19.79
2019-02-17T15:23:15.110Z,19.82
2019-02-17T15:25:41.976Z,19.78
2019-02-17T15:28:08.874Z,19.78
2019-02-17T15:30:35.786Z,19.78
2019-02-17T15:33:04.271Z,19.76
2019-02-17T15:35:31.394Z,19.73
2019-02-17T15:37:58.275Z,19.77
2019-02-17T15:40:25.569Z,19.78
2019-02-17T15:42:52.564Z,19.80
2019-02-17T15:45:19.851Z,19.82
2019-02-17T15:47:47.127Z,19.81
2019-02-17T15:50:14.345Z,19.75
2019-02-17T15:52:41.259Z,19.75
2019-02-17T15:55:08.219Z,19.74
2019-02-17T15:57:36.177Z,19.76
2019-02-17T16:00:03.147Z,19.71
2019-02-17T16:02:30.161Z,19.67
2019-02-17T16:04:57.353Z,19.61
2019-02-17T16:07:24.683Z,19.56
2019-02-17T16:09:51.604Z,19.52
2019-02-17T16:12:18.558Z,19.48
2019-02-17T16:14:45.504Z,19.47
2019-02-17T16:17:12.713Z,19.44
2019-02-17T16:19:39.972Z,19.41
2019-02-17T16:22:06.975Z,19.38
2019-02-17T16:24:35.277Z,19.37
2019-02-17T16:27:02.193Z,19.37
2019-02-17T16:29:29.139Z,19.36
2019-02-17T16:31:56.423Z,19.37
2019-02-17T16:34:23.315Z,19.38
2019-02-17T16:36:50.297Z,19.40
2019-02-17T16:39:17.269Z,19.41
2019-02-17T16:41:44.228Z,19.37
2019-02-17T16:44:11.551Z,19.33
2019-02-17T16:46:39.935Z,19.27
2019-02-17T16:49:07.203Z,19.24
2019-02-17T16:51:34.450Z,19.20
2019-02-17T16:54:01.693Z,19.15
2019-02-17T16:56:28.852Z,19.11
2019-02-17T16:58:55.821Z,19.05
2019-02-17T17:01:22.777Z,18.98
2019-02-17T17:03:50.098Z,18.92
2019-02-17T17:06:17.357Z,18.89
2019-02-17T17:08:44.695Z,18.84
2019-02-17T17:11:11.849Z,18.80
2019-02-17T17:13:39.142Z,18.76
2019-02-17T17:16:06.487Z,18.75
2019-02-17T17:18:33.434Z,18.72
2019-02-17T17:21:00.307Z,18.68
2019-02-17T17:23:28.549Z,18.67
2019-02-17T17:25:55.824Z,18.65
2019-02-17T17:28:23.038Z,18.63
2019-02-17T17:30:50.028Z,18.59
2019-02-17T17:33:16.986Z,18.54
2019-02-17T17:35:44.289Z,18.52
2019-02-17T17:38:11.700Z,18.49
2019-02-17T17:40:38.981Z,18.44
2019-02-17T17:43:06.238Z,18.41
2019-02-17T17:45:33.123Z,18.39
2019-02-17T17:48:00.618Z,18.36
2019-02-17T17:50:27.947Z,18.31
2019-02-17T17:52:54.901Z,18.28
2019-02-17T17:55:21.774Z,18.24
2019-02-17T17:57:49.047Z,18.19
2019-02-17T18:00:16.028Z,18.16
2019-02-17T18:02:42.977Z,18.11
2019-02-17T18:05:10.188Z,18.07
2019-02-17T18:07:37.175Z,18.04
2019-02-17T18:10:04.507Z,17.99
2019-02-17T18:12:33.364Z,17.93
2019-02-17T18:15:00.786Z,17.89
2019-02-17T18:17:28.080Z,17.86
2019-02-17T18:19:55.234Z,17.82
2019-02-17T18:22:22.115Z,17.80
2019-02-17T18:24:49.326Z,17.79
2019-02-17T18:27:16.593Z,17.78
2019-02-17T18:29:43.861Z,17.73
2019-02-17T18:32:11.180Z,17.68
2019-02-17T18:34:38.452Z,17.63
2019-02-17T18:37:05.706Z,17.59
2019-02-17T18:39:32.683Z,17.55
2019-02-17T18:42:00.009Z,17.52
2019-02-17T18:44:27.262Z,17.49
2019-02-17T18:46:54.225Z,17.47
2019-02-17T18:49:21.556Z,17.45
2019-02-17T18:51:48.586Z,17.45
2019-02-17T18:54:15.591Z,17.44
2019-02-17T18:56:43.303Z,17.40
2019-02-17T18:59:10.865Z,17.36
2019-02-17T19:01:37.890Z,17.28
2019-02-17T19:04:04.785Z,17.17
2019-02-17T19:06:32.030Z,17.10
2019-02-17T19:08:59.401Z,17.09
2019-02-17T19:11:27.774Z,17.11
2019-02-17T19:13:55.003Z,17.09
2019-02-17T19:16:21.969Z,17.10
2019-02-17T19:18:49.325Z,17.06
2019-02-17T19:21:16.213Z,17.02
2019-02-17T19:23:44.154Z,16.99
2019-02-17T19:26:11.092Z,16.95
2019-02-17T19:28:38.030Z,16.91
2019-02-17T19:31:04.924Z,16.86
2019-02-17T19:33:32.212Z,16.83
2019-02-17T19:35:59.374Z,16.78
2019-02-17T19:38:26.350Z,16.75
2019-02-17T19:40:53.573Z,16.74
2019-02-17T19:43:20.522Z,16.74
2019-02-17T19:45:47.446Z,16.72
2019-02-17T19:48:14.434Z,16.72
2019-02-17T19:50:41.382Z,16.71
2019-02-17T19:53:08.599Z,16.68
2019-02-17T19:55:35.554Z,16.66
2019-02-17T19:58:02.817Z,16.66
2019-02-17T20:00:30.196Z,16.63
2019-02-17T20:02:57.148Z,16.60
2019-02-17T20:05:24.126Z,16.59
2019-02-17T20:07:52.791Z,16.54
2019-02-17T20:10:20.160Z,16.50
2019-02-17T20:12:47.397Z,16.46
2019-02-17T20:15:14.761Z,16.46
2019-02-17T20:17:42.060Z,16.41
2019-02-17T20:20:09.029Z,16.36
2019-02-17T20:22:36.243Z,16.36
2019-02-17T20:25:03.486Z,16.36
2019-02-17T20:27:30.769Z,16.31
2019-02-17T20:29:57.735Z,16.28
2019-02-17T20:32:24.696Z,16.27
2019-02-17T20:34:52.016Z,16.23
2019-02-17T20:37:18.941Z,16.20
2019-02-17T20:39:45.831Z,16.14
2019-02-17T20:42:14.088Z,16.11
2019-02-17T20:44:41.065Z,16.11
2019-02-17T20:47:08.141Z,16.06
2019-02-17T20:49:35.515Z,16.02
2019-02-17T20:52:02.448Z,15.98
2019-02-17T20:54:30.410Z,15.92
2019-02-17T20:56:57.826Z,15.87
2019-02-17T20:59:24.877Z,15.86
2019-02-17T21:01:52.082Z,15.84
2019-02-17T21:04:19.874Z,15.80
2019-02-17T21:06:46.827Z,15.78
2019-02-17T21:09:13.804Z,15.77
2019-02-17T21:11:41.509Z,15.70
2019-02-17T21:14:08.473Z,15.65
2019-02-17T21:16:38.111Z,15.58
2019-02-17T21:19:05.119Z,15.52
2019-02-17T21:21:32.379Z,15.51
2019-02-17T21:23:59.608Z,15.51
2019-02-17T21:26:26.871Z,15.48
2019-02-17T21:28:53.845Z,15.42
2019-02-17T21:31:21.192Z,15.42
2019-02-17T21:33:48.154Z,15.43
2019-02-17T21:36:22.774Z,15.41
2019-02-17T21:38:43.620Z,15.40
2019-02-17T21:41:10.550Z,15.38
2019-02-17T21:43:37.519Z,15.37
2019-02-17T21:46:04.501Z,15.30
2019-02-17T21:48:31.438Z,15.26
2019-02-17T21:50:58.677Z,15.21
2019-02-17T21:53:26.249Z,15.10
2019-02-17T21:55:53.257Z,15.03
2019-02-17T21:58:20.553Z,14.95
2019-02-17T22:00:47.857Z,14.86
2019-02-17T22:03:14.721Z,14.85
2019-02-17T22:05:41.593Z,14.83
2019-02-17T22:08:08.843Z,14.86
2019-02-17T22:10:36.096Z,14.91
2019-02-17T22:13:03.063Z,14.98
2019-02-17T22:15:30.606Z,15.02
2019-02-17T22:17:57.584Z,15.07
2019-02-17T22:20:24.532Z,15.12
2019-02-17T22:22:51.757Z,15.15
2019-02-17T22:25:18.649Z,15.17
2019-02-17T22:27:45.937Z,15.17
2019-02-17T22:30:13.214Z,15.18
2019-02-17T22:32:42.991Z,15.21
2019-02-17T22:35:10.631Z,15.19
2019-02-17T22:37:37.614Z,15.20
2019-02-17T22:40:04.890Z,15.19
2019-02-17T22:42:32.255Z,15.19
2019-02-17T22:44:59.603Z,15.20
2019-02-17T22:47:26.550Z,15.19
2019-02-17T22:49:53.501Z,15.20
2019-02-17T22:52:20.732Z,15.21
2019-02-17T22:54:47.686Z,15.21
2019-02-17T22:57:15.745Z,15.16
2019-02-17T22:59:42.700Z,15.11
2019-02-17T23:02:11.887Z,15.08
2019-02-17T23:04:40.051Z,15.07
2019-02-17T23:07:08.113Z,15.06
2019-02-17T23:09:35.081Z,15.07
2019-02-17T23:12:02.036Z,15.05
2019-02-17T23:14:29.074Z,15.03
2019-02-17T23:16:56.042Z,15.05
2019-02-17T23:19:22.925Z,15.02
2019-02-17T23:21:49.886Z,15.02
2019-02-17T23:24:16.848Z,15.04
2019-02-17T23:26:43.858Z,15.02
2019-02-17T23:29:10.797Z,15.01
2019-02-17T23:31:37.704Z,15.00
2019-02-17T23:34:04.668Z,14.99
2019-02-17T23:36:31.990Z,14.98
2019-02-17T23:38:59.256Z,14.97
2019-02-17T23:41:26.490Z,14.94
2019-02-17T23:43:53.370Z,14.91
2019-02-17T23:46:20.343Z,14.93
2019-02-17T23:48:47.643Z,14.95
2019-02-17T23:51:14.873Z,14.96
2019-02-17T23:53:42.025Z,14.88
2019-02-17T23:56:09.177Z,14.80
2019-02-17T23:58:36.093Z,14.71
